YPRC weather

Prince Charles Hospital Helipad
Brisbane, Queensland, Australia

Public forecast

Using degrees Celsius for public forecast. Weather courtesy of forecast.io.

METAR (pilot weather report)

Closest report is Brisbane International Airport, 5.0 nm (9.2 km) E. Retrieved 2019/04/20 10:30 UTC (1 hour ago):

YBBN 201030Z 15006KT 9999 FEW020 BKN060 22/19 Q1021 INTER 1030/1330 3000 SHRA BKN012

TAF (pilot weather forecast)

Closest forecast is Brisbane International Airport, 5.0 nm (9.2 km) E. Retrieved 2019/04/20 06:00 UTC (6 hours ago):

TAF YBBN 200501Z 2006/2112 13014KT 9999 -SHRA SCT020 BKN040 FM201200 16010KT 9999 -SHRA SCT015 BKN025 BKN040 FM202300 13014KT 9999 SCT025 SCT040 INTER 2006/2018 3000 SHRA BKN012